sensor_id;sensor_type;location;lat;lon;timestamp;pressure;altitude;pressure_sealevel;temperature;humidity
11174;BME280;5643;50.856;12.088;2022-07-29T00:00:12;99634.38;;;23.61;40.98
11174;BME280;5643;50.856;12.088;2022-07-29T00:02:42;99641.97;;;23.58;41.61
11174;BME280;5643;50.856;12.088;2022-07-29T00:05:10;99631.03;;;23.46;40.93
11174;BME280;5643;50.856;12.088;2022-07-29T00:07:41;99633.22;;;23.43;41.11
11174;BME280;5643;50.856;12.088;2022-07-29T00:10:09;99634.97;;;23.57;41.34
11174;BME280;5643;50.856;12.088;2022-07-29T00:12:39;99631.16;;;23.38;41.78
11174;BME280;5643;50.856;12.088;2022-07-29T00:15:27;99627.91;;;23.43;42.27
11174;BME280;5643;50.856;12.088;2022-07-29T00:17:58;99627.19;;;23.27;41.99
11174;BME280;5643;50.856;12.088;2022-07-29T00:20:28;99624.75;;;23.32;41.74
11174;BME280;5643;50.856;12.088;2022-07-29T00:22:57;99623.59;;;23.76;41.71
11174;BME280;5643;50.856;12.088;2022-07-29T00:25:25;99615.19;;;24.20;40.77
11174;BME280;5643;50.856;12.088;2022-07-29T00:27:56;99609.03;;;23.78;40.78
11174;BME280;5643;50.856;12.088;2022-07-29T00:30:24;99611.91;;;23.43;41.57
11174;BME280;5643;50.856;12.088;2022-07-29T00:32:53;99606.13;;;23.67;41.35
11174;BME280;5643;50.856;12.088;2022-07-29T00:35:21;99603.81;;;23.57;42.57
11174;BME280;5643;50.856;12.088;2022-07-29T00:38:06;99605.50;;;23.37;42.09
11174;BME280;5643;50.856;12.088;2022-07-29T00:40:34;99611.03;;;23.35;42.43
11174;BME280;5643;50.856;12.088;2022-07-29T00:43:07;99600.78;;;23.67;41.50
11174;BME280;5643;50.856;12.088;2022-07-29T00:45:36;99607.19;;;23.45;42.34
11174;BME280;5643;50.856;12.088;2022-07-29T00:48:13;99602.66;;;23.73;41.82
11174;BME280;5643;50.856;12.088;2022-07-29T00:50:46;99613.75;;;23.42;41.69
11174;BME280;5643;50.856;12.088;2022-07-29T00:53:16;99608.06;;;23.17;42.54
11174;BME280;5643;50.856;12.088;2022-07-29T00:55:44;99602.09;;;23.15;43.49
11174;BME280;5643;50.856;12.088;2022-07-29T00:58:14;99600.50;;;23.49;42.39
11174;BME280;5643;50.856;12.088;2022-07-29T01:00:43;99597.41;;;23.52;42.15
11174;BME280;5643;50.856;12.088;2022-07-29T01:03:11;99605.50;;;23.37;41.43
11174;BME280;5643;50.856;12.088;2022-07-29T01:05:41;99594.53;;;22.91;43.38
11174;BME280;5643;50.856;12.088;2022-07-29T01:08:11;99596.94;;;22.86;43.81
11174;BME280;5643;50.856;12.088;2022-07-29T01:10:41;99595.31;;;22.85;43.80
11174;BME280;5643;50.856;12.088;2022-07-29T01:13:13;99594.03;;;23.09;43.70
11174;BME280;5643;50.856;12.088;2022-07-29T01:15:44;99594.63;;;23.04;43.33
11174;BME280;5643;50.856;12.088;2022-07-29T01:18:18;99593.03;;;23.10;43.11
11174;BME280;5643;50.856;12.088;2022-07-29T01:21:15;99596.94;;;22.65;44.13
11174;BME280;5643;50.856;12.088;2022-07-29T01:26:45;99582.63;;;22.44;45.41
11174;BME280;5643;50.856;12.088;2022-07-29T01:29:23;99583.22;;;22.68;44.19
11174;BME280;5643;50.856;12.088;2022-07-29T01:31:57;99579.16;;;22.93;43.22
11174;BME280;5643;50.856;12.088;2022-07-29T01:34:32;99576.13;;;22.96;43.48
11174;BME280;5643;50.856;12.088;2022-07-29T01:37:08;99579.66;;;22.75;43.54
11174;BME280;5643;50.856;12.088;2022-07-29T01:39:38;99569.81;;;22.54;44.65
11174;BME280;5643;50.856;12.088;2022-07-29T01:42:14;99573.66;;;22.52;44.56
11174;BME280;5643;50.856;12.088;2022-07-29T01:44:53;99573.41;;;22.47;45.02
11174;BME280;5643;50.856;12.088;2022-07-29T01:47:33;99576.03;;;22.40;45.19
11174;BME280;5643;50.856;12.088;2022-07-29T01:50:05;99577.28;;;22.66;44.29
11174;BME280;5643;50.856;12.088;2022-07-29T01:52:39;99570.91;;;22.39;45.09
11174;BME280;5643;50.856;12.088;2022-07-29T01:55:13;99568.59;;;22.57;44.91
11174;BME280;5643;50.856;12.088;2022-07-29T01:57:44;99556.66;;;22.95;43.44
11174;BME280;5643;50.856;12.088;2022-07-29T02:00:16;99569.25;;;22.59;44.01
11174;BME280;5643;50.856;12.088;2022-07-29T02:02:47;99556.50;;;22.33;45.02
11174;BME280;5643;50.856;12.088;2022-07-29T02:05:18;99563.91;;;22.80;44.56
11174;BME280;5643;50.856;12.088;2022-07-29T02:07:49;99563.09;;;22.80;44.44
11174;BME280;5643;50.856;12.088;2022-07-29T02:10:21;99562.78;;;22.47;44.75
11174;BME280;5643;50.856;12.088;2022-07-29T02:12:50;99554.09;;;22.17;45.29
11174;BME280;5643;50.856;12.088;2022-07-29T02:15:22;99555.56;;;21.84;46.57
11174;BME280;5643;50.856;12.088;2022-07-29T02:17:54;99547.69;;;22.33;45.46
11174;BME280;5643;50.856;12.088;2022-07-29T02:20:23;99550.31;;;22.26;45.64
11174;BME280;5643;50.856;12.088;2022-07-29T02:22:55;99551.56;;;22.51;45.44
11174;BME280;5643;50.856;12.088;2022-07-29T02:25:24;99552.84;;;22.13;45.62
11174;BME280;5643;50.856;12.088;2022-07-29T02:27:54;99559.66;;;22.01;45.59
11174;BME280;5643;50.856;12.088;2022-07-29T02:30:27;99546.06;;;22.10;45.04
11174;BME280;5643;50.856;12.088;2022-07-29T02:32:56;99546.69;;;22.13;44.50
11174;BME280;5643;50.856;12.088;2022-07-29T02:35:27;99550.25;;;22.41;44.30
11174;BME280;5643;50.856;12.088;2022-07-29T02:37:56;99552.06;;;22.62;44.27
11174;BME280;5643;50.856;12.088;2022-07-29T02:40:42;99551.25;;;22.61;44.53
11174;BME280;5643;50.856;12.088;2022-07-29T02:43:11;99552.63;;;22.57;45.67
11174;BME280;5643;50.856;12.088;2022-07-29T02:45:45;99551.56;;;22.09;46.91
11174;BME280;5643;50.856;12.088;2022-07-29T02:48:15;99554.97;;;22.03;46.73
11174;BME280;5643;50.856;12.088;2022-07-29T02:50:49;99550.69;;;22.23;46.26
11174;BME280;5643;50.856;12.088;2022-07-29T02:53:22;99552.28;;;22.39;46.19
11174;BME280;5643;50.856;12.088;2022-07-29T02:55:57;99550.81;;;22.36;46.73
11174;BME280;5643;50.856;12.088;2022-07-29T02:58:29;99549.34;;;22.34;46.95
11174;BME280;5643;50.856;12.088;2022-07-29T03:01:02;99550.25;;;22.41;45.88
11174;BME280;5643;50.856;12.088;2022-07-29T03:03:34;99535.38;;;22.25;46.14
11174;BME280;5643;50.856;12.088;2022-07-29T03:06:07;99532.22;;;22.43;46.11
11174;BME280;5643;50.856;12.088;2022-07-29T03:08:45;99541.53;;;22.53;46.18
11174;BME280;5643;50.856;12.088;2022-07-29T03:11:15;99548.28;;;22.49;46.28
11174;BME280;5643;50.856;12.088;2022-07-29T03:13:45;99544.53;;;21.87;48.32
11174;BME280;5643;50.856;12.088;2022-07-29T03:16:17;99542.09;;;21.70;49.21
11174;BME280;5643;50.856;12.088;2022-07-29T03:18:47;99535.88;;;22.14;47.40
11174;BME280;5643;50.856;12.088;2022-07-29T03:21:16;99537.03;;;22.26;47.28
11174;BME280;5643;50.856;12.088;2022-07-29T03:23:44;99539.91;;;21.74;48.38
11174;BME280;5643;50.856;12.088;2022-07-29T03:26:12;99544.28;;;22.18;47.47
11174;BME280;5643;50.856;12.088;2022-07-29T03:28:41;99540.94;;;22.09;48.11
11174;BME280;5643;50.856;12.088;2022-07-29T03:31:09;99542.63;;;21.81;48.01
11174;BME280;5643;50.856;12.088;2022-07-29T03:33:39;99551.09;;;21.69;49.73
11174;BME280;5643;50.856;12.088;2022-07-29T03:36:07;99552.44;;;21.95;48.43
11174;BME280;5643;50.856;12.088;2022-07-29T03:38:38;99560.47;;;22.01;48.19
11174;BME280;5643;50.856;12.088;2022-07-29T03:41:09;99558.66;;;22.02;48.07
11174;BME280;5643;50.856;12.088;2022-07-29T03:43:39;99555.38;;;21.85;48.13
11174;BME280;5643;50.856;12.088;2022-07-29T03:46:10;99559.47;;;22.02;47.57
11174;BME280;5643;50.856;12.088;2022-07-29T03:48:42;99556.81;;;22.02;47.35
11174;BME280;5643;50.856;12.088;2022-07-29T03:51:14;99561.66;;;21.63;48.81
11174;BME280;5643;50.856;12.088;2022-07-29T03:53:43;99565.31;;;21.47;49.70
11174;BME280;5643;50.856;12.088;2022-07-29T03:56:16;99574.84;;;21.56;49.49
11174;BME280;5643;50.856;12.088;2022-07-29T03:58:50;99565.94;;;21.79;47.58
11174;BME280;5643;50.856;12.088;2022-07-29T04:01:19;99565.72;;;21.80;49.01
11174;BME280;5643;50.856;12.088;2022-07-29T04:03:49;99568.13;;;21.90;49.29
11174;BME280;5643;50.856;12.088;2022-07-29T04:06:17;99568.19;;;21.82;49.42
11174;BME280;5643;50.856;12.088;2022-07-29T04:08:45;99572.16;;;22.00;49.14
11174;BME280;5643;50.856;12.088;2022-07-29T04:11:13;99570.41;;;22.29;48.17
11174;BME280;5643;50.856;12.088;2022-07-29T04:13:44;99566.81;;;22.22;48.94
11174;BME280;5643;50.856;12.088;2022-07-29T04:16:12;99571.78;;;21.89;48.82
11174;BME280;5643;50.856;12.088;2022-07-29T04:18:42;99570.00;;;22.10;47.81
11174;BME280;5643;50.856;12.088;2022-07-29T04:21:37;99575.56;;;21.94;48.41
11174;BME280;5643;50.856;12.088;2022-07-29T04:24:32;99575.88;;;22.27;47.27
11174;BME280;5643;50.856;12.088;2022-07-29T04:27:15;99578.88;;;22.60;46.93
11174;BME280;5643;50.856;12.088;2022-07-29T04:29:54;99581.66;;;22.73;46.37
11174;BME280;5643;50.856;12.088;2022-07-29T04:32:30;99591.03;;;22.69;49.01
11174;BME280;5643;50.856;12.088;2022-07-29T04:34:58;99581.59;;;23.16;47.83
11174;BME280;5643;50.856;12.088;2022-07-29T04:37:28;99584.69;;;22.91;47.69
11174;BME280;5643;50.856;12.088;2022-07-29T04:39:57;99576.78;;;22.56;50.50
11174;BME280;5643;50.856;12.088;2022-07-29T04:42:27;99574.59;;;22.02;50.32
11174;BME280;5643;50.856;12.088;2022-07-29T04:44:55;99569.63;;;22.14;49.96
11174;BME280;5643;50.856;12.088;2022-07-29T04:47:24;99563.78;;;22.03;49.54
11174;BME280;5643;50.856;12.088;2022-07-29T04:49:58;99569.69;;;22.20;49.39
11174;BME280;5643;50.856;12.088;2022-07-29T04:52:28;99576.56;;;23.27;46.84
11174;BME280;5643;50.856;12.088;2022-07-29T04:54:57;99574.78;;;23.07;47.53
11174;BME280;5643;50.856;12.088;2022-07-29T04:57:25;99578.88;;;22.60;49.09
11174;BME280;5643;50.856;12.088;2022-07-29T04:59:54;99566.25;;;22.90;49.76
11174;BME280;5643;50.856;12.088;2022-07-29T05:02:23;99567.88;;;23.19;48.21
11174;BME280;5643;50.856;12.088;2022-07-29T05:04:51;99565.16;;;23.88;46.58
11174;BME280;5643;50.856;12.088;2022-07-29T05:07:20;99570.09;;;23.84;47.70
11174;BME280;5643;50.856;12.088;2022-07-29T05:09:52;99565.09;;;24.29;47.54
11174;BME280;5643;50.856;12.088;2022-07-29T05:12:24;99566.38;;;24.46;46.80
11174;BME280;5643;50.856;12.088;2022-07-29T05:14:53;99563.88;;;24.57;47.31
11174;BME280;5643;50.856;12.088;2022-07-29T05:17:27;99570.25;;;24.43;46.12
11174;BME280;5643;50.856;12.088;2022-07-29T05:19:58;99565.31;;;24.34;48.17
11174;BME280;5643;50.856;12.088;2022-07-29T05:22:28;99568.22;;;24.65;47.11
11174;BME280;5643;50.856;12.088;2022-07-29T05:25:20;99560.00;;;24.60;45.34
11174;BME280;5643;50.856;12.088;2022-07-29T05:27:50;99562.47;;;24.55;45.72
11174;BME280;5643;50.856;12.088;2022-07-29T05:30:19;99559.19;;;24.46;46.78
11174;BME280;5643;50.856;12.088;2022-07-29T05:32:47;99555.69;;;24.59;46.93
11174;BME280;5643;50.856;12.088;2022-07-29T05:35:18;99554.91;;;23.91;46.22
11174;BME280;5643;50.856;12.088;2022-07-29T05:37:50;99550.44;;;23.98;45.39
11174;BME280;5643;50.856;12.088;2022-07-29T05:40:24;99554.50;;;24.01;46.11
11174;BME280;5643;50.856;12.088;2022-07-29T05:42:55;99555.03;;;24.24;45.80
11174;BME280;5643;50.856;12.088;2022-07-29T05:45:24;99553.41;;;24.43;44.24
11174;BME280;5643;50.856;12.088;2022-07-29T05:47:57;99558.88;;;24.08;46.50
11174;BME280;5643;50.856;12.088;2022-07-29T05:50:30;99552.81;;;24.41;44.45
11174;BME280;5643;50.856;12.088;2022-07-29T05:52:59;99554.84;;;24.65;43.65
11174;BME280;5643;50.856;12.088;2022-07-29T05:55:29;99555.59;;;24.13;46.23
11174;BME280;5643;50.856;12.088;2022-07-29T05:58:00;99559.34;;;23.71;44.52
11174;BME280;5643;50.856;12.088;2022-07-29T06:00:31;99562.63;;;23.66;45.98
11174;BME280;5643;50.856;12.088;2022-07-29T06:03:01;99552.19;;;24.65;42.85
11174;BME280;5643;50.856;12.088;2022-07-29T06:05:30;99556.22;;;24.15;43.88
11174;BME280;5643;50.856;12.088;2022-07-29T06:07:59;99559.38;;;24.58;44.09
11174;BME280;5643;50.856;12.088;2022-07-29T06:10:31;99556.31;;;24.94;42.07
11174;BME280;5643;50.856;12.088;2022-07-29T06:12:59;99556.69;;;25.11;42.36
11174;BME280;5643;50.856;12.088;2022-07-29T06:15:32;99551.88;;;25.97;41.54
11174;BME280;5643;50.856;12.088;2022-07-29T06:18:06;99557.22;;;25.59;42.70
11174;BME280;5643;50.856;12.088;2022-07-29T06:20:36;99563.88;;;25.17;42.98
11174;BME280;5643;50.856;12.088;2022-07-29T06:23:06;99561.94;;;25.50;42.14
11174;BME280;5643;50.856;12.088;2022-07-29T06:25:39;99565.63;;;25.62;42.78
11174;BME280;5643;50.856;12.088;2022-07-29T06:28:08;99568.16;;;25.44;42.21
11174;BME280;5643;50.856;12.088;2022-07-29T06:30:37;99572.75;;;24.91;45.10
11174;BME280;5643;50.856;12.088;2022-07-29T06:33:08;99563.84;;;25.36;43.39
11174;BME280;5643;50.856;12.088;2022-07-29T06:35:37;99562.00;;;25.30;44.67
11174;BME280;5643;50.856;12.088;2022-07-29T06:38:09;99563.84;;;25.30;43.97
11174;BME280;5643;50.856;12.088;2022-07-29T06:40:44;99562.56;;;25.52;42.99
11174;BME280;5643;50.856;12.088;2022-07-29T06:43:32;99566.38;;;27.26;40.09
11174;BME280;5643;50.856;12.088;2022-07-29T06:46:08;99564.84;;;25.42;42.52
11174;BME280;5643;50.856;12.088;2022-07-29T06:48:37;99561.84;;;25.83;41.70
11174;BME280;5643;50.856;12.088;2022-07-29T06:51:09;99557.28;;;27.82;37.62
11174;BME280;5643;50.856;12.088;2022-07-29T06:53:41;99559.00;;;26.16;40.42
11174;BME280;5643;50.856;12.088;2022-07-29T06:56:14;99564.00;;;27.73;39.52
11174;BME280;5643;50.856;12.088;2022-07-29T06:58:45;99554.53;;;28.18;38.47
11174;BME280;5643;50.856;12.088;2022-07-29T07:01:14;99560.31;;;28.33;37.70
11174;BME280;5643;50.856;12.088;2022-07-29T07:03:43;99557.97;;;28.25;39.19
11174;BME280;5643;50.856;12.088;2022-07-29T07:06:15;99552.91;;;29.92;36.23
11174;BME280;5643;50.856;12.088;2022-07-29T07:08:44;99563.66;;;27.51;38.94
11174;BME280;5643;50.856;12.088;2022-07-29T07:11:16;99546.94;;;28.15;36.85
11174;BME280;5643;50.856;12.088;2022-07-29T07:13:45;99542.88;;;28.24;37.23
11174;BME280;5643;50.856;12.088;2022-07-29T07:16:15;99550.69;;;28.67;37.72
11174;BME280;5643;50.856;12.088;2022-07-29T07:18:45;99553.09;;;28.46;35.95
11174;BME280;5643;50.856;12.088;2022-07-29T07:21:14;99553.75;;;29.41;35.23
11174;BME280;5643;50.856;12.088;2022-07-29T07:23:43;99559.34;;;29.28;34.70
11174;BME280;5643;50.856;12.088;2022-07-29T07:26:12;99553.06;;;29.10;35.64
11174;BME280;5643;50.856;12.088;2022-07-29T07:28:42;99549.97;;;30.38;35.09
11174;BME280;5643;50.856;12.088;2022-07-29T07:31:11;99541.44;;;29.45;36.40
11174;BME280;5643;50.856;12.088;2022-07-29T07:33:43;99539.22;;;30.38;33.79
11174;BME280;5643;50.856;12.088;2022-07-29T07:36:20;99532.91;;;30.33;34.92
11174;BME280;5643;50.856;12.088;2022-07-29T07:38:53;99534.69;;;28.84;35.03
11174;BME280;5643;50.856;12.088;2022-07-29T07:41:24;99541.16;;;29.70;33.40
11174;BME280;5643;50.856;12.088;2022-07-29T07:43:57;99525.50;;;30.40;33.43
11174;BME280;5643;50.856;12.088;2022-07-29T07:46:27;99532.88;;;29.99;35.93
11174;BME280;5643;50.856;12.088;2022-07-29T07:48:57;99527.63;;;29.30;34.23
11174;BME280;5643;50.856;12.088;2022-07-29T07:51:28;99534.25;;;28.34;36.14
11174;BME280;5643;50.856;12.088;2022-07-29T07:53:59;99533.53;;;29.66;34.52
11174;BME280;5643;50.856;12.088;2022-07-29T07:56:29;99530.59;;;30.08;35.00
11174;BME280;5643;50.856;12.088;2022-07-29T07:59:02;99531.41;;;29.40;36.75
11174;BME280;5643;50.856;12.088;2022-07-29T08:01:34;99534.91;;;29.41;35.56
11174;BME280;5643;50.856;12.088;2022-07-29T08:04:03;99529.97;;;30.34;34.87
11174;BME280;5643;50.856;12.088;2022-07-29T08:06:34;99523.47;;;31.57;33.76
11174;BME280;5643;50.856;12.088;2022-07-29T08:09:07;99523.72;;;29.60;35.03
11174;BME280;5643;50.856;12.088;2022-07-29T08:11:35;99522.84;;;29.83;34.26
11174;BME280;5643;50.856;12.088;2022-07-29T08:14:07;99522.19;;;30.66;35.17
11174;BME280;5643;50.856;12.088;2022-07-29T08:16:37;99514.50;;;29.56;36.30
11174;BME280;5643;50.856;12.088;2022-07-29T08:19:06;99513.84;;;29.78;35.17
11174;BME280;5643;50.856;12.088;2022-07-29T08:21:38;99518.72;;;29.81;35.76
11174;BME280;5643;50.856;12.088;2022-07-29T08:24:07;99512.91;;;29.44;34.87
11174;BME280;5643;50.856;12.088;2022-07-29T08:26:53;99510.50;;;30.77;34.05
11174;BME280;5643;50.856;12.088;2022-07-29T08:29:26;99507.50;;;31.12;33.68
11174;BME280;5643;50.856;12.088;2022-07-29T08:31:58;99498.53;;;31.28;34.16
11174;BME280;5643;50.856;12.088;2022-07-29T08:34:27;99491.19;;;31.94;32.62
11174;BME280;5643;50.856;12.088;2022-07-29T08:36:56;99499.91;;;31.31;33.20
11174;BME280;5643;50.856;12.088;2022-07-29T08:39:25;99500.03;;;31.19;32.23
11174;BME280;5643;50.856;12.088;2022-07-29T08:41:54;99499.00;;;32.17;31.73
11174;BME280;5643;50.856;12.088;2022-07-29T08:44:28;99504.25;;;32.29;31.97
11174;BME280;5643;50.856;12.088;2022-07-29T08:46:58;99512.41;;;31.37;30.48
11174;BME280;5643;50.856;12.088;2022-07-29T08:49:28;99511.91;;;30.18;32.29
11174;BME280;5643;50.856;12.088;2022-07-29T08:51:57;99511.69;;;31.25;32.51
11174;BME280;5643;50.856;12.088;2022-07-29T08:54:34;99518.53;;;30.94;33.05
11174;BME280;5643;50.856;12.088;2022-07-29T08:57:04;99513.00;;;31.88;31.00
11174;BME280;5643;50.856;12.088;2022-07-29T08:59:38;99508.66;;;31.87;31.16
11174;BME280;5643;50.856;12.088;2022-07-29T09:02:18;99510.88;;;31.90;30.03
11174;BME280;5643;50.856;12.088;2022-07-29T09:04:49;99512.03;;;31.72;31.80
11174;BME280;5643;50.856;12.088;2022-07-29T09:07:19;99502.50;;;31.64;31.46
11174;BME280;5643;50.856;12.088;2022-07-29T09:09:49;99505.72;;;31.45;32.29
11174;BME280;5643;50.856;12.088;2022-07-29T09:12:18;99507.44;;;31.72;31.42
11174;BME280;5643;50.856;12.088;2022-07-29T09:14:52;99509.38;;;31.77;31.19
11174;BME280;5643;50.856;12.088;2022-07-29T09:17:42;99498.25;;;32.96;29.82
11174;BME280;5643;50.856;12.088;2022-07-29T09:20:15;99492.84;;;31.95;30.94
11174;BME280;5643;50.856;12.088;2022-07-29T09:22:46;99494.78;;;32.27;29.91
11174;BME280;5643;50.856;12.088;2022-07-29T09:25:32;99494.72;;;32.58;30.41
11174;BME280;5643;50.856;12.088;2022-07-29T09:28:07;99489.28;;;33.42;29.39
11174;BME280;5643;50.856;12.088;2022-07-29T09:30:52;99485.50;;;31.91;30.71
11174;BME280;5643;50.856;12.088;2022-07-29T09:33:34;99484.59;;;32.76;30.58
11174;BME280;5643;50.856;12.088;2022-07-29T09:36:07;99483.34;;;32.93;29.49
11174;BME280;5643;50.856;12.088;2022-07-29T09:38:39;99478.97;;;32.13;29.85
11174;BME280;5643;50.856;12.088;2022-07-29T09:41:10;99482.16;;;32.10;29.15
11174;BME280;5643;50.856;12.088;2022-07-29T09:43:53;99480.00;;;32.76;29.04
11174;BME280;5643;50.856;12.088;2022-07-29T09:46:24;99482.78;;;32.49;30.04
11174;BME280;5643;50.856;12.088;2022-07-29T09:49:10;99484.16;;;32.94;28.52
11174;BME280;5643;50.856;12.088;2022-07-29T09:51:44;99480.53;;;32.73;29.38
11174;BME280;5643;50.856;12.088;2022-07-29T09:54:22;99476.72;;;32.69;29.19
11174;BME280;5643;50.856;12.088;2022-07-29T09:56:53;99467.63;;;32.16;29.67
11174;BME280;5643;50.856;12.088;2022-07-29T09:59:23;99464.94;;;33.53;29.01
11174;BME280;5643;50.856;12.088;2022-07-29T10:01:58;99456.75;;;32.75;28.49
11174;BME280;5643;50.856;12.088;2022-07-29T10:04:38;99469.31;;;32.96;29.61
11174;BME280;5643;50.856;12.088;2022-07-29T10:07:09;99452.56;;;33.05;28.56
11174;BME280;5643;50.856;12.088;2022-07-29T10:09:39;99448.22;;;33.71;28.42
11174;BME280;5643;50.856;12.088;2022-07-29T10:12:29;99451.13;;;33.44;28.93
11174;BME280;5643;50.856;12.088;2022-07-29T10:14:58;99454.91;;;33.43;28.47
11174;BME280;5643;50.856;12.088;2022-07-29T10:17:34;99449.69;;;32.74;29.27
11174;BME280;5643;50.856;12.088;2022-07-29T10:20:04;99455.00;;;33.06;29.14
11174;BME280;5643;50.856;12.088;2022-07-29T10:22:34;99456.94;;;32.27;29.50
11174;BME280;5643;50.856;12.088;2022-07-29T10:25:05;99456.56;;;32.50;29.15
11174;BME280;5643;50.856;12.088;2022-07-29T10:27:35;99442.31;;;34.09;27.64
11174;BME280;5643;50.856;12.088;2022-07-29T10:30:05;99445.81;;;33.79;28.18
11174;BME280;5643;50.856;12.088;2022-07-29T10:32:48;99448.91;;;33.36;28.07
11174;BME280;5643;50.856;12.088;2022-07-29T10:35:37;99441.47;;;33.83;28.12
11174;BME280;5643;50.856;12.088;2022-07-29T10:38:40;99436.25;;;33.52;28.55
11174;BME280;5643;50.856;12.088;2022-07-29T10:41:36;99434.66;;;33.71;28.44
11174;BME280;5643;50.856;12.088;2022-07-29T10:44:14;99439.75;;;34.94;27.79
11174;BME280;5643;50.856;12.088;2022-07-29T10:46:45;99429.03;;;34.28;27.99
11174;BME280;5643;50.856;12.088;2022-07-29T10:49:25;99431.91;;;34.97;29.49
11174;BME280;5643;50.856;12.088;2022-07-29T10:52:03;99426.28;;;34.43;28.75
11174;BME280;5643;50.856;12.088;2022-07-29T10:54:47;99414.88;;;34.72;28.11
11174;BME280;5643;50.856;12.088;2022-07-29T10:57:25;99417.53;;;33.50;29.05
11174;BME280;5643;50.856;12.088;2022-07-29T11:00:31;99412.19;;;35.36;27.46
11174;BME280;5643;50.856;12.088;2022-07-29T11:03:07;99407.94;;;35.09;27.75
11174;BME280;5643;50.856;12.088;2022-07-29T11:05:56;99401.97;;;36.01;26.21
11174;BME280;5643;50.856;12.088;2022-07-29T11:08:28;99402.31;;;35.55;28.48
11174;BME280;5643;50.856;12.088;2022-07-29T11:14:10;99394.94;;;36.28;27.01
11174;BME280;5643;50.856;12.088;2022-07-29T11:17:00;99394.53;;;35.77;26.58
11174;BME280;5643;50.856;12.088;2022-07-29T11:19:38;99396.50;;;36.58;25.97
11174;BME280;5643;50.856;12.088;2022-07-29T11:22:32;99392.66;;;38.52;25.34
11174;BME280;5643;50.856;12.088;2022-07-29T11:25:18;99394.69;;;38.14;25.25
11174;BME280;5643;50.856;12.088;2022-07-29T11:27:47;99388.25;;;39.33;23.96
11174;BME280;5643;50.856;12.088;2022-07-29T11:30:17;99385.78;;;37.76;25.64
11174;BME280;5643;50.856;12.088;2022-07-29T11:32:47;99386.47;;;36.01;27.15
11174;BME280;5643;50.856;12.088;2022-07-29T11:35:18;99379.13;;;35.63;26.49
11174;BME280;5643;50.856;12.088;2022-07-29T11:38:24;99376.44;;;37.95;24.95
11174;BME280;5643;50.856;12.088;2022-07-29T11:41:21;99368.25;;;37.02;25.81
11174;BME280;5643;50.856;12.088;2022-07-29T11:43:55;99363.69;;;39.99;23.25
11174;BME280;5643;50.856;12.088;2022-07-29T11:46:45;99365.63;;;37.72;25.13
11174;BME280;5643;50.856;12.088;2022-07-29T11:49:20;99375.34;;;36.79;25.68
11174;BME280;5643;50.856;12.088;2022-07-29T11:51:51;99378.22;;;35.77;26.78
11174;BME280;5643;50.856;12.088;2022-07-29T11:54:29;99375.09;;;35.11;27.11
11174;BME280;5643;50.856;12.088;2022-07-29T11:57:03;99372.25;;;35.80;26.78
11174;BME280;5643;50.856;12.088;2022-07-29T11:59:39;99372.03;;;35.72;25.96
11174;BME280;5643;50.856;12.088;2022-07-29T12:02:10;99367.22;;;36.26;25.52
11174;BME280;5643;50.856;12.088;2022-07-29T12:04:50;99369.50;;;36.91;27.89
11174;BME280;5643;50.856;12.088;2022-07-29T12:07:34;99367.56;;;36.44;26.51
11174;BME280;5643;50.856;12.088;2022-07-29T12:10:19;99354.47;;;37.87;25.04
11174;BME280;5643;50.856;12.088;2022-07-29T12:12:51;99352.16;;;35.76;26.86
11174;BME280;5643;50.856;12.088;2022-07-29T12:15:21;99358.47;;;36.01;26.02
11174;BME280;5643;50.856;12.088;2022-07-29T12:17:50;99352.38;;;35.41;26.76
11174;BME280;5643;50.856;12.088;2022-07-29T12:20:24;99352.47;;;37.41;24.83
11174;BME280;5643;50.856;12.088;2022-07-29T12:22:54;99348.34;;;37.25;25.59
11174;BME280;5643;50.856;12.088;2022-07-29T12:25:26;99345.28;;;38.83;24.57
11174;BME280;5643;50.856;12.088;2022-07-29T12:28:00;99336.84;;;38.71;24.54
11174;BME280;5643;50.856;12.088;2022-07-29T12:30:39;99339.00;;;37.31;25.00
11174;BME280;5643;50.856;12.088;2022-07-29T12:33:14;99341.94;;;36.50;25.88
11174;BME280;5643;50.856;12.088;2022-07-29T12:35:45;99341.97;;;36.92;25.17
11174;BME280;5643;50.856;12.088;2022-07-29T12:38:21;99338.25;;;37.63;26.74
11174;BME280;5643;50.856;12.088;2022-07-29T12:40:59;99351.84;;;36.88;25.58
11174;BME280;5643;50.856;12.088;2022-07-29T12:43:29;99336.69;;;38.08;24.77
11174;BME280;5643;50.856;12.088;2022-07-29T12:46:13;99340.59;;;35.56;27.69
11174;BME280;5643;50.856;12.088;2022-07-29T12:48:43;99338.09;;;35.98;26.56
11174;BME280;5643;50.856;12.088;2022-07-29T12:51:15;99332.19;;;35.18;27.60
11174;BME280;5643;50.856;12.088;2022-07-29T12:54:02;99343.19;;;35.37;27.58
11174;BME280;5643;50.856;12.088;2022-07-29T12:56:44;99345.72;;;35.62;27.63
11174;BME280;5643;50.856;12.088;2022-07-29T12:59:16;99340.16;;;35.43;28.20
11174;BME280;5643;50.856;12.088;2022-07-29T13:01:49;99345.28;;;35.45;28.52
11174;BME280;5643;50.856;12.088;2022-07-29T13:04:26;99351.50;;;35.06;27.86
11174;BME280;5643;50.856;12.088;2022-07-29T13:07:00;99358.81;;;34.27;28.26
11174;BME280;5643;50.856;12.088;2022-07-29T13:09:39;99354.88;;;34.78;27.87
11174;BME280;5643;50.856;12.088;2022-07-29T13:12:13;99350.78;;;35.79;27.56
11174;BME280;5643;50.856;12.088;2022-07-29T13:14:48;99353.38;;;36.23;28.06
11174;BME280;5643;50.856;12.088;2022-07-29T13:17:21;99353.09;;;35.13;28.73
11174;BME280;5643;50.856;12.088;2022-07-29T13:19:52;99355.13;;;35.36;28.30
11174;BME280;5643;50.856;12.088;2022-07-29T13:22:24;99352.97;;;35.38;29.16
11174;BME280;5643;50.856;12.088;2022-07-29T13:24:55;99353.88;;;34.49;29.01
11174;BME280;5643;50.856;12.088;2022-07-29T13:27:28;99363.69;;;34.30;27.91
11174;BME280;5643;50.856;12.088;2022-07-29T13:30:00;99362.03;;;34.34;28.82
11174;BME280;5643;50.856;12.088;2022-07-29T13:32:35;99356.00;;;34.77;28.80
11174;BME280;5643;50.856;12.088;2022-07-29T13:35:10;99363.00;;;35.37;30.06
11174;BME280;5643;50.856;12.088;2022-07-29T13:37:40;99378.06;;;33.74;35.89